createdAt,value
2018-06-14T00:01:44.926Z,99.90
2018-06-14T00:04:13.515Z,99.90
2018-06-14T00:06:42.089Z,99.90
2018-06-14T00:09:11.322Z,99.90
2018-06-14T00:11:39.979Z,99.90
2018-06-14T00:14:08.636Z,99.90
2018-06-14T00:19:05.827Z,99.90
2018-06-14T00:21:34.385Z,99.90
2018-06-14T00:24:02.997Z,99.90
2018-06-14T00:26:31.649Z,99.90
2018-06-14T00:29:00.298Z,99.90
2018-06-14T00:31:28.948Z,99.90
2018-06-14T00:33:57.544Z,99.90
2018-06-14T00:36:26.141Z,99.90
2018-06-14T00:38:54.715Z,99.90
2018-06-14T00:41:23.628Z,99.90
2018-06-14T00:43:52.786Z,99.90
2018-06-14T00:46:21.386Z,99.90
2018-06-14T00:48:49.960Z,99.90
2018-06-14T00:51:18.487Z,99.90
2018-06-14T00:53:47.106Z,99.90
2018-06-14T00:56:15.805Z,99.90
2018-06-14T00:58:44.707Z,99.90
2018-06-14T01:01:13.398Z,99.90
2018-06-14T01:03:41.995Z,99.90
2018-06-14T01:06:10.554Z,99.90
2018-06-14T01:08:39.124Z,99.90
2018-06-14T01:11:07.759Z,99.90
2018-06-14T01:13:36.952Z,99.90
2018-06-14T01:16:05.519Z,99.90
2018-06-14T01:18:34.160Z,99.90
2018-06-14T01:23:55.800Z,99.90
2018-06-14T01:26:24.390Z,99.90
2018-06-14T01:28:53.187Z,99.90
2018-06-14T01:31:21.768Z,99.90
2018-06-14T01:33:50.378Z,99.90
2018-06-14T01:36:18.989Z,99.90
2018-06-14T01:38:47.601Z,99.90
2018-06-14T01:41:16.292Z,99.90
2018-06-14T01:43:44.894Z,99.90
2018-06-14T01:46:13.614Z,99.90
2018-06-14T01:48:43.099Z,99.90
2018-06-14T01:51:11.675Z,99.90
2018-06-14T01:53:40.312Z,99.90
2018-06-14T01:56:08.842Z,99.90
2018-06-14T02:01:28.525Z,99.90
2018-06-14T02:03:57.236Z,99.90
2018-06-14T02:06:25.797Z,99.90
2018-06-14T02:08:54.362Z,99.90
2018-06-14T02:11:23.276Z,99.90
2018-06-14T02:13:51.808Z,99.90
2018-06-14T02:16:20.443Z,99.90
2018-06-14T02:18:49.064Z,99.90
2018-06-14T02:21:17.886Z,99.90
2018-06-14T02:23:46.471Z,99.90
2018-06-14T02:26:15.131Z,99.90
2018-06-14T02:28:43.710Z,99.90
2018-06-14T02:31:12.862Z,99.90
2018-06-14T02:33:41.466Z,99.90
2018-06-14T02:36:10.100Z,99.90
2018-06-14T02:38:38.664Z,99.90
2018-06-14T02:41:07.268Z,99.90
2018-06-14T02:43:35.851Z,99.90
2018-06-14T02:46:05.002Z,99.90
2018-06-14T02:48:33.635Z,99.90
2018-06-14T02:51:02.222Z,99.90
2018-06-14T02:53:30.763Z,99.90
2018-06-14T02:55:59.394Z,99.90
2018-06-14T02:58:27.991Z,99.90
2018-06-14T03:00:56.626Z,99.90
2018-06-14T03:03:25.537Z,99.90
2018-06-14T03:05:55.068Z,99.90
2018-06-14T03:08:23.727Z,99.90
2018-06-14T03:10:52.341Z,99.90
2018-06-14T03:13:20.911Z,99.90
2018-06-14T03:15:49.444Z,99.90
2018-06-14T03:18:18.044Z,99.90
2018-06-14T03:20:46.659Z,99.90
2018-06-14T03:23:16.148Z,99.90
2018-06-14T03:25:45.376Z,99.90
2018-06-14T03:28:14.402Z,99.90
2018-06-14T03:30:43.077Z,99.90
2018-06-14T03:33:11.847Z,99.90
2018-06-14T03:35:41.652Z,99.90
2018-06-14T03:38:10.237Z,99.90
2018-06-14T03:40:38.841Z,99.90
2018-06-14T03:43:07.443Z,99.90
2018-06-14T03:45:35.989Z,99.90
2018-06-14T03:48:05.280Z,99.90
2018-06-14T03:50:33.858Z,99.90
2018-06-14T03:53:02.507Z,99.90
2018-06-14T03:55:31.239Z,99.90
2018-06-14T03:57:59.854Z,99.90
2018-06-14T04:00:28.371Z,99.90
2018-06-14T04:02:56.995Z,99.90
2018-06-14T04:05:25.551Z,99.90
2018-06-14T04:07:54.137Z,99.90
2018-06-14T04:10:22.793Z,99.90
2018-06-14T04:12:51.348Z,99.90
2018-06-14T04:15:19.893Z,99.90
2018-06-14T04:18:00.864Z,99.90
2018-06-14T04:20:30.686Z,99.90
2018-06-14T04:22:59.400Z,99.90
2018-06-14T04:25:28.003Z,99.90
2018-06-14T04:27:56.601Z,99.90
2018-06-14T04:30:26.901Z,99.90
2018-06-14T04:32:55.511Z,99.90
2018-06-14T04:35:24.510Z,99.90
2018-06-14T04:37:55.706Z,99.90
2018-06-14T04:40:24.273Z,99.90
2018-06-14T04:42:53.930Z,99.90
2018-06-14T04:45:22.856Z,99.90
2018-06-14T04:47:51.458Z,99.90
2018-06-14T04:50:20.354Z,99.90
2018-06-14T04:52:49.274Z,99.90
2018-06-14T04:55:17.848Z,99.90
2018-06-14T04:57:46.455Z,99.90
2018-06-14T05:00:15.105Z,99.90
2018-06-14T05:02:43.743Z,99.90
2018-06-14T05:05:12.312Z,99.90
2018-06-14T05:07:40.880Z,99.90
2018-06-14T05:10:09.539Z,99.90
2018-06-14T05:12:38.141Z,99.90
2018-06-14T05:15:06.726Z,99.90
2018-06-14T05:17:35.334Z,99.90
2018-06-14T05:20:04.020Z,99.90
2018-06-14T05:22:32.772Z,99.90
2018-06-14T05:25:01.387Z,99.90
2018-06-14T05:27:30.533Z,99.90
2018-06-14T05:29:59.437Z,99.90
2018-06-14T05:32:28.372Z,99.90
2018-06-14T05:34:57.303Z,99.90
2018-06-14T05:39:54.601Z,99.90
2018-06-14T05:42:23.471Z,99.90
2018-06-14T05:44:52.017Z,99.90
2018-06-14T05:47:20.625Z,99.90
2018-06-14T05:49:49.247Z,99.90
2018-06-14T05:52:17.836Z,99.90
2018-06-14T05:54:46.477Z,99.90
2018-06-14T05:57:15.153Z,99.90
2018-06-14T05:59:43.744Z,99.90
2018-06-14T06:02:12.908Z,99.90
2018-06-14T06:04:41.553Z,99.90
2018-06-14T06:07:10.154Z,99.90
2018-06-14T06:09:40.610Z,99.90
2018-06-14T06:12:09.207Z,99.90
2018-06-14T06:14:37.932Z,99.90
2018-06-14T06:17:06.520Z,99.90
2018-06-14T06:19:35.764Z,99.90
2018-06-14T06:22:04.364Z,99.90
2018-06-14T06:24:33.332Z,99.90
2018-06-14T06:27:02.041Z,99.90
2018-06-14T06:29:30.663Z,99.90
2018-06-14T06:31:59.287Z,99.90
2018-06-14T06:34:28.543Z,99.90
2018-06-14T06:36:57.130Z,99.90
2018-06-14T06:39:25.919Z,99.90
2018-06-14T06:41:54.552Z,99.90
2018-06-14T06:44:23.078Z,99.90
2018-06-14T06:46:51.608Z,99.90
2018-06-14T06:49:20.184Z,99.90
2018-06-14T06:51:48.692Z,99.90
2018-06-14T06:54:17.198Z,99.90
2018-06-14T06:56:45.895Z,99.90
2018-06-14T06:59:14.393Z,99.90
2018-06-14T07:01:42.876Z,99.90
2018-06-14T07:04:11.522Z,99.90
2018-06-14T07:06:40.009Z,99.90
2018-06-14T07:09:09.928Z,99.90
2018-06-14T07:11:38.819Z,99.90
2018-06-14T07:14:07.488Z,99.90
2018-06-14T07:16:36.632Z,99.90
2018-06-14T07:19:05.125Z,99.90
2018-06-14T07:21:34.043Z,99.90
2018-06-14T07:24:02.551Z,99.90
2018-06-14T07:26:31.346Z,99.90
2018-06-14T07:29:00.061Z,99.90
2018-06-14T07:31:28.608Z,99.90
2018-06-14T07:33:57.417Z,99.90
2018-06-14T07:36:25.984Z,99.90
2018-06-14T07:38:54.438Z,99.90
2018-06-14T07:41:23.009Z,99.90
2018-06-14T07:43:51.607Z,99.90
2018-06-14T07:46:20.039Z,99.90
2018-06-14T07:48:48.556Z,99.90
2018-06-14T07:51:17.050Z,99.90
2018-06-14T07:53:45.492Z,99.90
2018-06-14T07:56:13.978Z,99.90
2018-06-14T07:58:42.454Z,99.90
2018-06-14T08:01:11.000Z,99.90
2018-06-14T08:03:39.485Z,99.10
2018-06-14T08:06:08.124Z,99.30
2018-06-14T08:08:36.606Z,99.90
2018-06-14T08:11:05.143Z,96.70
2018-06-14T08:13:34.981Z,96.90
2018-06-14T08:16:03.530Z,98.30
2018-06-14T08:18:32.023Z,98.50
2018-06-14T08:21:00.578Z,99.90
2018-06-14T08:23:29.064Z,98.30
2018-06-14T08:25:57.578Z,98.80
2018-06-14T08:28:26.127Z,99.00
2018-06-14T08:30:54.636Z,98.00
2018-06-14T08:33:23.199Z,98.20
2018-06-14T08:35:51.630Z,96.80
2018-06-14T08:38:20.151Z,96.90
2018-06-14T08:40:48.842Z,96.90
2018-06-14T08:43:17.742Z,95.70
2018-06-14T08:45:46.818Z,98.70
2018-06-14T08:48:15.288Z,97.90
2018-06-14T08:50:43.763Z,95.60
2018-06-14T08:53:12.270Z,94.30
2018-06-14T08:55:40.774Z,93.60
2018-06-14T08:58:09.260Z,92.60
2018-06-14T09:00:37.710Z,93.70
2018-06-14T09:03:06.292Z,92.60
2018-06-14T09:05:34.801Z,92.60
2018-06-14T09:08:03.330Z,93.60
2018-06-14T09:10:31.940Z,90.10
2018-06-14T09:13:00.425Z,91.00
2018-06-14T09:15:28.886Z,88.20
2018-06-14T09:17:57.324Z,92.80
2018-06-14T09:20:25.809Z,87.80
2018-06-14T09:22:54.323Z,87.30
2018-06-14T09:25:22.780Z,93.50
2018-06-14T09:27:51.282Z,85.30
2018-06-14T09:30:19.743Z,83.50
2018-06-14T09:32:48.230Z,82.70
2018-06-14T09:35:16.840Z,78.90
2018-06-14T09:37:45.322Z,78.50
2018-06-14T09:40:13.806Z,80.80
2018-06-14T09:42:42.387Z,78.70
2018-06-14T09:45:10.875Z,78.80
2018-06-14T09:47:39.374Z,79.20
2018-06-14T09:50:07.864Z,70.80
2018-06-14T09:52:36.505Z,73.70
2018-06-14T09:55:05.024Z,76.00
2018-06-14T09:57:33.578Z,74.50
2018-06-14T10:00:02.132Z,67.10
2018-06-14T10:04:58.849Z,70.50
2018-06-14T10:07:27.316Z,68.30
2018-06-14T10:09:55.794Z,69.10
2018-06-14T10:12:24.277Z,70.00
2018-06-14T10:14:52.774Z,67.50
2018-06-14T10:17:21.191Z,66.40
2018-06-14T10:19:49.673Z,66.50
2018-06-14T10:22:18.151Z,62.10
2018-06-14T10:24:46.625Z,66.50
2018-06-14T10:27:15.158Z,65.20
2018-06-14T10:29:43.666Z,65.00
2018-06-14T10:32:12.379Z,66.10
2018-06-14T10:34:41.019Z,68.90
2018-06-14T10:39:37.744Z,62.90
2018-06-14T10:42:06.193Z,62.30
2018-06-14T10:44:34.727Z,68.10
2018-06-14T10:47:03.254Z,61.60
2018-06-14T10:49:31.944Z,59.80
2018-06-14T10:52:00.530Z,66.50
2018-06-14T10:59:25.821Z,60.60
2018-06-14T11:01:54.352Z,57.60
2018-06-14T11:04:23.023Z,55.00
2018-06-14T11:06:51.651Z,59.30
2018-06-14T11:09:20.133Z,64.00
2018-06-14T11:11:48.655Z,59.10
2018-06-14T11:14:17.236Z,57.10
2018-06-14T11:16:46.027Z,55.00
2018-06-14T11:19:14.671Z,58.80
2018-06-14T11:21:43.253Z,58.10
2018-06-14T11:24:11.820Z,56.60
2018-06-14T11:26:40.404Z,57.80
2018-06-14T11:29:09.090Z,54.90
2018-06-14T11:31:37.728Z,54.90
2018-06-14T11:34:06.415Z,54.40
2018-06-14T11:36:35.045Z,52.10
2018-06-14T11:39:05.031Z,49.80
2018-06-14T11:41:33.668Z,51.70
2018-06-14T11:44:02.404Z,50.40
2018-06-14T11:46:31.037Z,52.50
2018-06-14T11:48:59.946Z,49.00
2018-06-14T11:51:28.549Z,53.90
2018-06-14T11:53:57.122Z,50.80
2018-06-14T11:56:25.631Z,48.70
2018-06-14T11:58:54.215Z,54.10
2018-06-14T12:01:22.822Z,54.80
2018-06-14T12:03:51.426Z,50.70
2018-06-14T12:06:20.069Z,50.10
2018-06-14T12:08:49.368Z,56.10
2018-06-14T12:11:18.235Z,50.10
2018-06-14T12:13:46.884Z,49.10
2018-06-14T12:16:15.472Z,47.20
2018-06-14T12:18:44.475Z,49.70
2018-06-14T12:21:13.104Z,49.60
2018-06-14T12:23:41.653Z,51.30
2018-06-14T12:26:10.213Z,48.90
2018-06-14T12:28:38.826Z,46.00
2018-06-14T12:31:07.356Z,46.20
2018-06-14T12:33:35.902Z,47.40
2018-06-14T12:36:04.553Z,49.10
2018-06-14T12:38:33.537Z,51.40
2018-06-14T12:41:02.148Z,47.00
2018-06-14T12:43:30.860Z,48.70
2018-06-14T12:45:59.440Z,45.50
2018-06-14T12:48:28.048Z,46.60
2018-06-14T12:50:57.008Z,48.30
2018-06-14T12:53:26.081Z,51.80
2018-06-14T12:55:54.712Z,46.60
2018-06-14T12:58:23.329Z,50.50
2018-06-14T13:00:51.971Z,45.30
2018-06-14T13:03:20.971Z,46.80
2018-06-14T13:05:50.377Z,44.40
2018-06-14T13:08:18.938Z,46.70
2018-06-14T13:10:47.509Z,46.10
2018-06-14T13:13:16.092Z,46.40
2018-06-14T13:15:44.951Z,43.90
2018-06-14T13:18:13.878Z,48.40
2018-06-14T13:20:42.685Z,44.50
2018-06-14T13:23:11.254Z,45.60
2018-06-14T13:25:39.935Z,46.80
2018-06-14T13:28:08.620Z,45.80
2018-06-14T13:30:38.584Z,50.10
2018-06-14T13:33:11.121Z,46.30
2018-06-14T13:35:40.323Z,45.40
2018-06-14T13:38:08.906Z,46.30
2018-06-14T13:40:38.302Z,46.10
2018-06-14T13:43:07.153Z,43.40
2018-06-14T13:45:35.973Z,42.60
2018-06-14T13:48:04.932Z,44.80
2018-06-14T13:50:33.567Z,43.80
2018-06-14T13:53:02.463Z,43.00
2018-06-14T13:55:31.084Z,45.80
2018-06-14T14:00:29.958Z,44.10
2018-06-14T14:02:58.577Z,42.80
2018-06-14T14:05:27.171Z,46.40
2018-06-14T14:07:55.874Z,42.80
2018-06-14T14:10:24.533Z,44.80
2018-06-14T14:12:53.316Z,42.90
2018-06-14T14:15:21.940Z,45.00
2018-06-14T14:17:50.637Z,43.30
2018-06-14T14:20:19.320Z,45.50
2018-06-14T14:22:47.909Z,38.40
2018-06-14T14:25:16.574Z,39.10
2018-06-14T14:27:45.268Z,42.70
2018-06-14T14:30:13.814Z,41.30
2018-06-14T14:32:42.423Z,40.50
2018-06-14T14:35:11.102Z,39.50
2018-06-14T14:37:39.781Z,41.60
2018-06-14T14:40:08.551Z,40.30
2018-06-14T14:42:37.148Z,40.00
2018-06-14T14:45:06.365Z,43.70
2018-06-14T14:47:35.047Z,41.30
2018-06-14T14:50:03.684Z,39.10
2018-06-14T14:52:32.989Z,38.30
2018-06-14T14:55:01.651Z,44.20
2018-06-14T14:57:31.117Z,41.70
2018-06-14T14:59:59.733Z,41.40
2018-06-14T15:02:28.326Z,39.40
2018-06-14T15:04:56.921Z,40.00
2018-06-14T15:07:26.382Z,40.60
2018-06-14T15:09:54.965Z,40.10
2018-06-14T15:12:23.549Z,40.50
2018-06-14T15:14:52.492Z,40.70
2018-06-14T15:17:21.114Z,40.60
2018-06-14T15:19:49.954Z,39.80
2018-06-14T15:22:18.676Z,40.40
2018-06-14T15:24:48.116Z,40.60
2018-06-14T15:27:17.041Z,39.40
2018-06-14T15:29:45.710Z,41.10
2018-06-14T15:32:15.061Z,38.60
2018-06-14T15:34:44.303Z,40.90
2018-06-14T15:37:12.913Z,41.40
2018-06-14T15:39:41.553Z,41.00
2018-06-14T15:42:10.291Z,39.60
2018-06-14T15:44:38.955Z,42.70
2018-06-14T15:47:07.556Z,45.70
2018-06-14T15:49:36.184Z,41.60
2018-06-14T15:52:05.304Z,46.70
2018-06-14T15:54:34.197Z,43.30
2018-06-14T15:57:02.894Z,42.40
2018-06-14T15:59:32.055Z,42.10
2018-06-14T16:02:00.644Z,42.90
2018-06-14T16:04:29.322Z,42.60
2018-06-14T16:06:57.991Z,45.10
2018-06-14T16:09:26.622Z,42.50
2018-06-14T16:11:55.479Z,44.50
2018-06-14T16:14:24.268Z,48.10
2018-06-14T16:16:52.833Z,45.90
2018-06-14T16:19:22.153Z,44.10
2018-06-14T16:21:50.742Z,44.70
2018-06-14T16:24:19.415Z,43.80
2018-06-14T16:26:48.242Z,47.70
2018-06-14T16:29:16.999Z,47.10
2018-06-14T16:31:45.602Z,45.70
2018-06-14T16:34:14.207Z,43.60
2018-06-14T16:36:42.802Z,43.70
2018-06-14T16:39:11.449Z,48.50
2018-06-14T16:41:40.035Z,50.40
2018-06-14T16:44:08.660Z,52.20
2018-06-14T16:46:37.314Z,47.10
2018-06-14T16:49:05.901Z,47.20
2018-06-14T16:51:34.520Z,49.20
2018-06-14T16:54:03.160Z,50.50
2018-06-14T16:56:31.829Z,54.70
2018-06-14T16:59:00.519Z,55.30
2018-06-14T17:01:29.491Z,50.60
2018-06-14T17:03:58.095Z,49.50
2018-06-14T17:06:26.737Z,49.00
2018-06-14T17:08:56.566Z,49.20
2018-06-14T17:11:25.133Z,53.20
2018-06-14T17:13:53.752Z,52.80
2018-06-14T17:16:22.368Z,50.60
2018-06-14T17:18:51.000Z,49.50
2018-06-14T17:21:19.581Z,48.20
2018-06-14T17:23:48.188Z,51.30
2018-06-14T17:26:16.831Z,50.90
2018-06-14T17:28:45.434Z,54.20
2018-06-14T17:31:14.015Z,53.00
2018-06-14T17:33:42.632Z,50.40
2018-06-14T17:36:11.231Z,50.90
2018-06-14T17:38:39.906Z,54.20
2018-06-14T17:41:08.758Z,57.00
2018-06-14T17:43:37.342Z,53.30
2018-06-14T17:46:05.963Z,57.20
2018-06-14T17:48:34.632Z,56.80
2018-06-14T17:51:03.269Z,52.20
2018-06-14T17:53:32.114Z,51.00
2018-06-14T17:56:01.349Z,51.30
2018-06-14T17:58:29.866Z,53.80
2018-06-14T18:00:59.176Z,56.40
2018-06-14T18:03:27.932Z,56.00
2018-06-14T18:05:56.619Z,57.60
2018-06-14T18:08:25.262Z,57.60
2018-06-14T18:10:53.880Z,58.70
2018-06-14T18:13:22.499Z,58.90
2018-06-14T18:15:51.558Z,61.70
2018-06-14T18:18:20.178Z,59.30
2018-06-14T18:20:48.794Z,56.80
2018-06-14T18:23:18.481Z,61.30
2018-06-14T18:25:47.455Z,63.40
2018-06-14T18:28:16.119Z,63.50
2018-06-14T18:30:45.130Z,63.80
2018-06-14T18:33:13.753Z,63.80
2018-06-14T18:35:42.339Z,63.00
2018-06-14T18:38:11.023Z,61.20
2018-06-14T18:40:39.683Z,64.00
2018-06-14T18:43:09.281Z,59.40
2018-06-14T18:45:38.233Z,62.50
2018-06-14T18:48:06.883Z,67.10
2018-06-14T18:50:35.372Z,64.70
2018-06-14T18:53:03.941Z,62.00
2018-06-14T18:55:32.871Z,64.40
2018-06-14T18:58:01.319Z,65.70
2018-06-14T19:00:29.774Z,65.20
2018-06-14T19:02:58.452Z,66.00
2018-06-14T19:05:27.063Z,65.50
2018-06-14T19:07:55.627Z,69.90
2018-06-14T19:10:24.124Z,70.00
2018-06-14T19:12:52.584Z,69.20
2018-06-14T19:15:21.070Z,71.50
2018-06-14T19:17:49.543Z,71.90
2018-06-14T19:20:18.067Z,72.70
2018-06-14T19:22:46.616Z,72.90
2018-06-14T19:25:15.768Z,73.10
2018-06-14T19:27:44.311Z,74.10
2018-06-14T19:30:12.887Z,73.90
2018-06-14T19:32:41.393Z,73.90
2018-06-14T19:35:09.954Z,75.50
2018-06-14T19:37:38.493Z,74.80
2018-06-14T19:40:07.191Z,77.00
2018-06-14T19:42:35.768Z,78.90
2018-06-14T19:45:05.003Z,79.10
2018-06-14T19:47:33.533Z,80.30
2018-06-14T19:50:02.050Z,82.10
2018-06-14T19:52:30.664Z,83.80
2018-06-14T19:54:59.264Z,85.40
2018-06-14T19:57:27.742Z,85.00
2018-06-14T19:59:56.382Z,89.90
2018-06-14T20:02:25.916Z,83.10
2018-06-14T20:04:54.466Z,89.70
2018-06-14T20:07:23.236Z,90.90
2018-06-14T20:09:52.610Z,91.80
2018-06-14T20:12:21.348Z,92.90
2018-06-14T20:14:49.952Z,94.50
2018-06-14T20:17:19.210Z,93.90
2018-06-14T20:19:47.833Z,94.90
2018-06-14T20:22:16.630Z,95.60
2018-06-14T20:24:45.654Z,96.90
2018-06-14T20:27:14.318Z,98.70
2018-06-14T20:29:43.264Z,99.30
2018-06-14T20:32:11.936Z,99.90
2018-06-14T20:34:40.625Z,99.90
2018-06-14T20:37:09.307Z,99.90
2018-06-14T20:39:38.030Z,99.90
2018-06-14T20:42:06.794Z,99.90
2018-06-14T20:44:35.429Z,99.90
2018-06-14T20:47:05.172Z,99.90
2018-06-14T20:49:35.926Z,99.90
2018-06-14T20:52:05.890Z,99.90
2018-06-14T20:54:35.587Z,99.90
2018-06-14T20:57:07.106Z,99.90
2018-06-14T20:59:36.158Z,99.90
2018-06-14T21:02:05.255Z,99.90
2018-06-14T21:04:34.065Z,99.90
2018-06-14T21:07:02.907Z,99.90
2018-06-14T21:09:31.498Z,99.90
2018-06-14T21:12:00.163Z,99.90
2018-06-14T21:14:29.274Z,99.90
2018-06-14T21:16:58.121Z,99.90
2018-06-14T21:19:26.846Z,99.90
2018-06-14T21:21:55.528Z,99.90
2018-06-14T21:24:24.608Z,99.90
2018-06-14T21:26:53.444Z,99.90
2018-06-14T21:29:22.170Z,99.90
2018-06-14T21:31:51.695Z,99.90
2018-06-14T21:34:20.300Z,99.90
2018-06-14T21:36:48.880Z,99.90
2018-06-14T21:39:17.488Z,99.90
2018-06-14T21:41:46.251Z,99.90
2018-06-14T21:44:14.953Z,99.90
2018-06-14T21:49:11.872Z,99.90
2018-06-14T21:51:40.532Z,99.90
2018-06-14T21:54:09.347Z,99.90
2018-06-14T21:56:37.907Z,99.90
2018-06-14T21:59:06.444Z,99.90
2018-06-14T22:01:35.225Z,99.90
2018-06-14T22:04:03.879Z,99.90
2018-06-14T22:06:32.462Z,99.90
2018-06-14T22:09:01.404Z,99.90
2018-06-14T22:11:30.015Z,99.90
2018-06-14T22:13:58.599Z,99.90
2018-06-14T22:16:27.231Z,99.90
2018-06-14T22:18:55.808Z,99.90
2018-06-14T22:21:24.484Z,99.90
2018-06-14T22:23:53.113Z,99.90
2018-06-14T22:26:21.721Z,99.90
2018-06-14T22:28:50.275Z,99.90
2018-06-14T22:31:18.970Z,99.90
2018-06-14T22:33:58.817Z,99.90
2018-06-14T22:36:27.441Z,99.90
2018-06-14T22:38:56.035Z,99.90
2018-06-14T22:41:25.028Z,99.90
2018-06-14T22:43:53.548Z,99.90
2018-06-14T22:46:23.100Z,99.90
2018-06-14T22:48:51.708Z,99.90
2018-06-14T22:51:21.310Z,99.90
2018-06-14T22:53:49.923Z,99.90
2018-06-14T22:56:18.756Z,99.90
2018-06-14T22:58:47.295Z,99.90
2018-06-14T23:01:48.850Z,99.90
2018-06-14T23:04:20.837Z,99.90
2018-06-14T23:06:49.400Z,99.90
2018-06-14T23:10:32.564Z,99.90
2018-06-14T23:13:01.185Z,99.90
2018-06-14T23:15:30.370Z,99.90
2018-06-14T23:17:59.296Z,99.90
2018-06-14T23:20:28.875Z,99.90
2018-06-14T23:22:58.244Z,99.90
2018-06-14T23:25:27.655Z,99.90
2018-06-14T23:27:56.265Z,99.90
2018-06-14T23:30:25.052Z,99.90
2018-06-14T23:32:53.605Z,99.90
2018-06-14T23:35:22.153Z,99.90
2018-06-14T23:37:50.696Z,99.90
2018-06-14T23:40:19.307Z,99.90
2018-06-14T23:42:48.106Z,99.90
2018-06-14T23:45:16.656Z,99.90
2018-06-14T23:47:45.186Z,99.90
2018-06-14T23:50:13.747Z,99.90
2018-06-14T23:55:10.728Z,99.90
2018-06-14T23:57:39.290Z,99.90
